createdAt,value
2023-03-25T00:00:19.068Z,100.00
2023-03-25T00:02:55.471Z,100.00
2023-03-25T00:05:22.640Z,100.00
2023-03-25T00:07:52.688Z,100.00
2023-03-25T00:10:20.461Z,100.00
2023-03-25T00:12:48.686Z,100.00
2023-03-25T00:15:16.322Z,100.00
2023-03-25T00:17:44.314Z,100.00
2023-03-25T00:20:12.702Z,100.00
2023-03-25T00:22:41.985Z,100.00
2023-03-25T00:25:17.401Z,100.00
2023-03-25T00:27:46.671Z,100.00
2023-03-25T00:30:16.528Z,100.00
2023-03-25T00:32:50.217Z,100.00
2023-03-25T00:35:19.379Z,100.00
2023-03-25T00:37:52.217Z,100.00
2023-03-25T00:40:19.090Z,100.00
2023-03-25T00:42:50.406Z,99.54
2023-03-25T00:45:17.706Z,98.19
2023-03-25T00:47:44.512Z,97.77
2023-03-25T00:50:12.251Z,97.22
2023-03-25T00:52:39.162Z,97.81
2023-03-25T00:55:06.768Z,96.43
2023-03-25T00:57:34.046Z,95.14
2023-03-25T01:00:00.888Z,96.90
2023-03-25T01:02:27.759Z,95.17
2023-03-25T01:04:55.056Z,94.89
2023-03-25T01:07:21.842Z,93.36
2023-03-25T01:09:49.103Z,93.69
2023-03-25T01:12:16.569Z,93.51
2023-03-25T01:14:43.572Z,93.15
2023-03-25T01:17:11.515Z,93.74
2023-03-25T01:19:38.592Z,94.29
2023-03-25T01:22:06.103Z,94.00
2023-03-25T01:24:33.275Z,94.98
2023-03-25T01:27:00.329Z,94.96
2023-03-25T01:29:27.224Z,94.84
2023-03-25T01:31:54.215Z,96.68
2023-03-25T01:34:21.036Z,95.14
2023-03-25T01:36:49.112Z,96.10
2023-03-25T01:39:18.986Z,95.44
2023-03-25T01:41:51.066Z,95.35
2023-03-25T01:44:24.138Z,95.14
2023-03-25T01:46:53.588Z,92.86
2023-03-25T01:49:39.121Z,91.74
2023-03-25T01:52:12.677Z,91.34
2023-03-25T01:54:41.686Z,92.22
2023-03-25T01:57:12.856Z,92.33
2023-03-25T01:59:41.720Z,91.94
2023-03-25T02:02:15.577Z,92.75
2023-03-25T02:05:03.877Z,97.02
2023-03-25T02:07:35.915Z,96.38
2023-03-25T02:10:09.498Z,100.00
2023-03-25T02:12:36.482Z,100.00
2023-03-25T02:15:07.860Z,100.00
2023-03-25T02:18:17.552Z,100.00
2023-03-25T02:21:08.238Z,100.00
2023-03-25T02:24:01.720Z,100.00
2023-03-25T02:26:36.463Z,100.00
2023-03-25T02:29:36.939Z,100.00
2023-03-25T02:32:42.260Z,100.00
2023-03-25T02:36:04.171Z,100.00
2023-03-25T02:38:49.467Z,100.00
2023-03-25T02:41:41.797Z,100.00
2023-03-25T02:44:16.921Z,100.00
2023-03-25T02:46:55.528Z,100.00
2023-03-25T02:49:30.479Z,100.00
2023-03-25T02:52:09.035Z,100.00
2023-03-25T02:54:39.209Z,100.00
2023-03-25T02:57:09.396Z,100.00
2023-03-25T02:59:38.890Z,100.00
2023-03-25T03:02:10.327Z,100.00
2023-03-25T03:04:56.681Z,100.00
2023-03-25T03:07:36.354Z,100.00
2023-03-25T03:10:22.834Z,100.00
2023-03-25T03:13:14.444Z,100.00
2023-03-25T03:16:25.807Z,100.00
2023-03-25T03:19:34.194Z,100.00
2023-03-25T03:22:25.613Z,100.00
2023-03-25T03:25:06.299Z,100.00
2023-03-25T03:28:19.863Z,100.00
2023-03-25T03:31:00.446Z,100.00
2023-03-25T03:33:44.591Z,100.00
2023-03-25T03:36:21.156Z,100.00
2023-03-25T03:38:59.570Z,100.00
2023-03-25T03:41:29.882Z,100.00
2023-03-25T03:44:19.693Z,100.00
2023-03-25T03:47:05.426Z,100.00
2023-03-25T03:49:46.148Z,100.00
2023-03-25T03:52:25.510Z,100.00
2023-03-25T03:55:00.733Z,100.00
2023-03-25T03:57:35.694Z,99.73
2023-03-25T04:00:09.862Z,99.83
2023-03-25T04:02:47.935Z,100.00
2023-03-25T04:05:19.788Z,100.00
2023-03-25T04:08:03.837Z,100.00
2023-03-25T04:10:55.178Z,98.80
2023-03-25T04:13:23.778Z,98.63
2023-03-25T04:15:51.016Z,100.00
2023-03-25T04:18:17.904Z,99.16
2023-03-25T04:20:45.011Z,99.32
2023-03-25T04:23:16.132Z,99.16
2023-03-25T04:25:47.701Z,98.35
2023-03-25T04:28:18.032Z,98.29
2023-03-25T04:30:47.434Z,97.88
2023-03-25T04:33:14.724Z,96.41
2023-03-25T04:35:41.602Z,97.89
2023-03-25T04:38:08.448Z,96.17
2023-03-25T04:40:35.375Z,96.78
2023-03-25T04:43:02.168Z,96.76
2023-03-25T04:45:30.533Z,96.82
2023-03-25T04:47:58.028Z,98.00
2023-03-25T04:50:28.570Z,95.76
2023-03-25T04:53:00.371Z,97.16
2023-03-25T04:55:29.853Z,96.24
2023-03-25T04:57:56.784Z,94.65
2023-03-25T05:00:25.365Z,93.30
2023-03-25T05:02:55.793Z,91.82
2023-03-25T05:05:26.093Z,91.77
2023-03-25T05:07:58.290Z,90.66
2023-03-25T05:10:29.370Z,90.94
2023-03-25T05:13:02.239Z,90.35
2023-03-25T05:15:32.538Z,90.13
2023-03-25T05:17:59.526Z,88.87
2023-03-25T05:20:26.477Z,90.21
2023-03-25T05:22:53.583Z,90.66
2023-03-25T05:25:23.064Z,90.13
2023-03-25T05:27:49.906Z,90.80
2023-03-25T05:30:17.049Z,91.36
2023-03-25T05:32:45.735Z,92.82
2023-03-25T05:35:12.782Z,90.83
2023-03-25T05:37:39.834Z,90.57
2023-03-25T05:40:15.110Z,91.55
2023-03-25T05:42:46.887Z,89.96
2023-03-25T05:45:13.713Z,89.15
2023-03-25T05:47:41.230Z,89.52
2023-03-25T05:50:10.367Z,89.76
2023-03-25T05:52:37.338Z,88.19
2023-03-25T05:55:04.989Z,89.29
2023-03-25T05:57:31.864Z,88.88
2023-03-25T05:59:58.638Z,88.72
2023-03-25T06:02:25.764Z,89.44
2023-03-25T06:04:52.699Z,88.79
2023-03-25T06:07:22.273Z,88.96
2023-03-25T06:09:50.062Z,89.84
2023-03-25T06:12:20.717Z,89.88
2023-03-25T06:14:48.260Z,89.92
2023-03-25T06:17:19.208Z,90.97
2023-03-25T06:19:46.580Z,91.04
2023-03-25T06:22:13.350Z,92.37
2023-03-25T06:24:41.745Z,92.10
2023-03-25T06:27:15.671Z,92.74
2023-03-25T06:29:42.494Z,91.82
2023-03-25T06:32:12.560Z,92.57
2023-03-25T06:34:42.479Z,92.87
2023-03-25T06:37:10.400Z,93.87
2023-03-25T06:39:37.725Z,94.47
2023-03-25T06:42:07.262Z,94.73
2023-03-25T06:44:34.061Z,94.59
2023-03-25T06:47:02.523Z,93.13
2023-03-25T06:49:29.485Z,92.94
2023-03-25T06:51:56.240Z,91.28
2023-03-25T06:54:23.169Z,89.50
2023-03-25T06:56:50.124Z,90.15
2023-03-25T06:59:16.944Z,89.95
2023-03-25T07:01:44.021Z,89.16
2023-03-25T07:04:10.809Z,89.70
2023-03-25T07:06:38.019Z,89.46
2023-03-25T07:09:04.905Z,89.09
2023-03-25T07:11:33.757Z,89.61
2023-03-25T07:14:00.981Z,89.10
2023-03-25T07:16:29.172Z,87.05
2023-03-25T07:18:57.129Z,86.37
2023-03-25T07:21:24.387Z,85.99
2023-03-25T07:23:52.324Z,85.75
2023-03-25T07:26:19.510Z,85.66
2023-03-25T07:28:48.080Z,86.06
2023-03-25T07:31:16.903Z,85.80
2023-03-25T07:33:44.042Z,84.81
2023-03-25T07:36:14.025Z,86.04
2023-03-25T07:38:41.028Z,85.52
2023-03-25T07:41:12.144Z,85.00
2023-03-25T07:43:39.486Z,85.94
2023-03-25T07:46:06.806Z,84.44
2023-03-25T07:48:33.686Z,84.09
2023-03-25T07:51:00.564Z,82.26
2023-03-25T07:53:27.513Z,82.26
2023-03-25T07:55:54.399Z,81.44
2023-03-25T07:58:21.826Z,81.55
2023-03-25T08:00:48.815Z,79.20
2023-03-25T08:03:16.085Z,79.06
2023-03-25T08:05:47.843Z,78.72
2023-03-25T08:08:15.384Z,78.77
2023-03-25T08:10:48.049Z,77.62
2023-03-25T08:13:14.950Z,76.14
2023-03-25T08:15:41.783Z,74.28
2023-03-25T08:18:08.728Z,74.68
2023-03-25T08:20:36.150Z,75.27
2023-03-25T08:23:03.873Z,74.31
2023-03-25T08:25:31.619Z,75.20
2023-03-25T08:27:58.488Z,75.62
2023-03-25T08:30:25.343Z,77.98
2023-03-25T08:32:55.151Z,83.84
2023-03-25T08:35:25.362Z,90.33
2023-03-25T08:37:52.379Z,90.04
2023-03-25T08:40:19.887Z,91.97
2023-03-25T08:42:46.965Z,93.20
2023-03-25T08:45:17.432Z,96.82
2023-03-25T08:47:45.602Z,98.26
2023-03-25T08:50:15.522Z,97.17
2023-03-25T08:52:42.283Z,97.87
2023-03-25T08:55:12.347Z,97.64
2023-03-25T08:57:39.340Z,97.80
2023-03-25T09:00:13.115Z,94.48
2023-03-25T09:02:41.973Z,96.57
2023-03-25T09:05:13.538Z,95.12
2023-03-25T09:07:40.426Z,93.59
2023-03-25T09:10:08.237Z,93.06
2023-03-25T09:12:35.177Z,90.89
2023-03-25T09:15:02.080Z,88.90
2023-03-25T09:17:29.055Z,91.06
2023-03-25T09:19:57.691Z,91.51
2023-03-25T09:22:25.919Z,93.78
2023-03-25T09:24:52.817Z,94.86
2023-03-25T09:27:19.617Z,98.21
2023-03-25T09:29:46.742Z,99.91
2023-03-25T09:32:14.905Z,99.21
2023-03-25T09:34:41.746Z,100.00
2023-03-25T09:37:08.525Z,98.98
2023-03-25T09:39:35.423Z,98.86
2023-03-25T09:42:26.801Z,99.84
2023-03-25T09:45:36.465Z,100.00
2023-03-25T09:48:13.990Z,100.00
2023-03-25T09:50:44.356Z,100.00
2023-03-25T09:53:33.285Z,100.00
2023-03-25T09:56:01.669Z,100.00
2023-03-25T09:58:41.380Z,100.00
2023-03-25T10:01:56.811Z,100.00
2023-03-25T10:04:56.092Z,100.00
2023-03-25T10:07:30.712Z,100.00
2023-03-25T10:10:15.897Z,100.00
2023-03-25T10:13:32.971Z,100.00
2023-03-25T10:16:44.060Z,100.00
2023-03-25T10:19:43.729Z,100.00
2023-03-25T10:22:25.719Z,100.00
2023-03-25T10:25:13.699Z,100.00
2023-03-25T10:27:45.512Z,100.00
2023-03-25T10:30:21.919Z,100.00
2023-03-25T10:32:59.043Z,100.00
2023-03-25T10:35:42.862Z,100.00
2023-03-25T10:38:20.685Z,97.03
2023-03-25T10:40:52.893Z,97.20
2023-03-25T10:43:36.182Z,96.79
2023-03-25T10:46:26.251Z,95.05
2023-03-25T10:48:53.184Z,91.28
2023-03-25T10:51:30.497Z,87.35
2023-03-25T10:53:59.359Z,80.30
2023-03-25T10:56:35.417Z,81.18
2023-03-25T10:59:18.794Z,79.06
2023-03-25T11:01:47.632Z,78.07
2023-03-25T11:04:20.786Z,76.13
2023-03-25T11:06:57.904Z,74.12
2023-03-25T11:09:32.366Z,70.69
2023-03-25T11:12:06.550Z,69.00
2023-03-25T11:14:40.439Z,68.59
2023-03-25T11:17:18.517Z,68.94
2023-03-25T11:20:00.658Z,67.54
2023-03-25T11:22:34.003Z,66.10
2023-03-25T11:25:14.054Z,66.33
2023-03-25T11:27:49.719Z,65.94
2023-03-25T11:30:23.717Z,63.87
2023-03-25T11:33:10.602Z,64.18
2023-03-25T11:35:44.417Z,58.00
2023-03-25T11:38:23.979Z,59.44
2023-03-25T11:41:00.498Z,61.71
2023-03-25T11:43:36.870Z,64.26
2023-03-25T11:46:14.361Z,62.76
2023-03-25T11:48:44.356Z,59.69
2023-03-25T11:51:29.987Z,57.64
2023-03-25T11:54:11.640Z,55.86
2023-03-25T11:56:41.924Z,53.53
2023-03-25T11:59:35.298Z,51.32
2023-03-25T12:02:23.082Z,51.46
2023-03-25T12:05:12.130Z,52.28
2023-03-25T12:07:49.451Z,57.81
2023-03-25T12:10:32.340Z,64.98
2023-03-25T12:13:18.906Z,70.73
2023-03-25T12:16:13.020Z,72.41
2023-03-25T12:19:14.670Z,74.35
2023-03-25T12:22:12.109Z,66.77
2023-03-25T12:25:22.590Z,59.85
2023-03-25T12:28:45.104Z,59.08
2023-03-25T12:31:54.318Z,60.79
2023-03-25T12:35:08.923Z,57.33
2023-03-25T12:38:31.255Z,50.30
2023-03-25T12:41:20.161Z,50.35
2023-03-25T12:44:34.290Z,49.07
2023-03-25T12:47:33.708Z,47.77
2023-03-25T12:50:46.992Z,46.96
2023-03-25T12:53:47.601Z,44.14
2023-03-25T12:56:45.268Z,43.50
2023-03-25T12:59:27.985Z,43.25
2023-03-25T13:02:00.943Z,43.13
2023-03-25T13:04:49.345Z,43.37
2023-03-25T13:07:36.509Z,42.84
2023-03-25T13:10:19.357Z,42.64
2023-03-25T13:12:55.274Z,42.49
2023-03-25T13:15:40.330Z,42.64
2023-03-25T13:18:32.823Z,41.19
2023-03-25T13:21:21.538Z,39.85
2023-03-25T13:24:00.567Z,39.67
2023-03-25T13:26:31.891Z,40.26
2023-03-25T13:29:07.392Z,42.90
2023-03-25T13:31:43.402Z,44.74
2023-03-25T13:34:35.293Z,47.12
2023-03-25T13:37:29.271Z,49.89
2023-03-25T13:40:13.685Z,51.49
2023-03-25T13:43:09.807Z,52.39
2023-03-25T13:45:59.151Z,55.47
2023-03-25T13:48:58.238Z,60.44
2023-03-25T13:51:25.216Z,58.03
2023-03-25T13:54:25.425Z,54.01
2023-03-25T13:57:07.374Z,51.61
2023-03-25T14:00:23.172Z,50.76
2023-03-25T14:03:27.605Z,50.68
2023-03-25T14:06:30.822Z,48.92
2023-03-25T14:09:21.992Z,46.85
2023-03-25T14:12:08.336Z,46.61
2023-03-25T14:14:58.179Z,47.20
2023-03-25T14:17:28.151Z,46.59
2023-03-25T14:19:59.867Z,46.66
2023-03-25T14:22:31.738Z,47.25
2023-03-25T14:25:00.638Z,47.02
2023-03-25T14:27:34.105Z,47.10
2023-03-25T14:30:06.908Z,48.14
2023-03-25T14:32:44.156Z,45.68
2023-03-25T14:35:33.298Z,43.87
2023-03-25T14:38:07.381Z,45.92
2023-03-25T14:40:59.140Z,46.17
2023-03-25T14:43:46.328Z,44.70
2023-03-25T14:46:13.669Z,43.43
2023-03-25T14:49:05.869Z,42.72
2023-03-25T14:51:34.912Z,44.66
2023-03-25T14:54:26.590Z,48.77
2023-03-25T14:57:14.250Z,49.48
2023-03-25T14:59:45.037Z,49.25
2023-03-25T15:02:27.553Z,49.19
2023-03-25T15:05:11.968Z,49.30
2023-03-25T15:08:10.046Z,49.63
2023-03-25T15:11:05.977Z,50.54
2023-03-25T15:13:52.690Z,51.67
2023-03-25T15:16:36.997Z,52.37
2023-03-25T15:19:08.371Z,53.39
2023-03-25T15:21:58.035Z,54.84
2023-03-25T15:24:40.731Z,55.48
2023-03-25T15:27:54.584Z,56.60
2023-03-25T15:31:08.332Z,56.25
2023-03-25T15:34:07.490Z,56.78
2023-03-25T15:37:45.129Z,57.91
2023-03-25T15:40:43.854Z,57.97
2023-03-25T15:43:34.687Z,58.86
2023-03-25T15:46:32.220Z,58.39
2023-03-25T15:49:22.808Z,58.16
2023-03-25T15:52:09.113Z,58.18
2023-03-25T15:54:50.395Z,58.25
2023-03-25T15:58:00.680Z,58.42
2023-03-25T16:00:36.820Z,58.32
2023-03-25T16:03:03.896Z,57.55
2023-03-25T16:05:38.389Z,57.81
2023-03-25T16:08:28.065Z,57.34
2023-03-25T16:10:56.125Z,56.95
2023-03-25T16:13:23.809Z,56.65
2023-03-25T16:15:57.792Z,56.56
2023-03-25T16:18:26.100Z,57.03
2023-03-25T16:21:03.567Z,57.25
2023-03-25T16:23:31.715Z,56.71
2023-03-25T16:25:58.466Z,56.80
2023-03-25T16:28:34.368Z,56.29
2023-03-25T16:31:02.917Z,56.23
2023-03-25T16:33:37.523Z,54.82
2023-03-25T16:36:15.547Z,55.67
2023-03-25T16:38:44.076Z,55.79
2023-03-25T16:41:15.600Z,56.12
2023-03-25T16:43:43.477Z,56.13
2023-03-25T16:46:14.989Z,56.27
2023-03-25T16:48:49.200Z,56.43
2023-03-25T16:51:32.106Z,56.77
2023-03-25T16:53:59.552Z,57.06
2023-03-25T16:56:32.657Z,56.19
2023-03-25T16:59:29.497Z,55.84
2023-03-25T17:02:01.764Z,56.06
2023-03-25T17:04:43.396Z,56.29
2023-03-25T17:07:20.936Z,56.65
2023-03-25T17:09:54.904Z,56.92
2023-03-25T17:12:24.208Z,57.05
2023-03-25T17:14:59.225Z,57.47
2023-03-25T17:17:43.403Z,57.78
2023-03-25T17:20:25.134Z,57.87
2023-03-25T17:23:01.862Z,58.38
2023-03-25T17:25:36.684Z,58.29
2023-03-25T17:28:30.001Z,58.71
2023-03-25T17:30:57.172Z,58.64
2023-03-25T17:33:34.037Z,58.70
2023-03-25T17:36:03.653Z,58.53
2023-03-25T17:38:38.307Z,58.74
2023-03-25T17:41:09.883Z,58.78
2023-03-25T17:43:43.593Z,58.68
2023-03-25T17:46:13.820Z,58.54
2023-03-25T17:48:40.812Z,58.25
2023-03-25T17:51:07.649Z,58.42
2023-03-25T17:53:34.465Z,58.26
2023-03-25T17:56:03.470Z,58.08
2023-03-25T17:58:30.597Z,58.30
2023-03-25T18:00:58.867Z,58.50
2023-03-25T18:03:30.573Z,58.59
2023-03-25T18:05:58.500Z,58.62
2023-03-25T18:08:27.013Z,58.86
2023-03-25T18:10:56.183Z,58.91
2023-03-25T18:13:24.064Z,59.27
2023-03-25T18:15:53.277Z,59.48
2023-03-25T18:18:26.443Z,59.56
2023-03-25T18:20:56.138Z,59.53
2023-03-25T18:23:23.672Z,59.44
2023-03-25T18:25:51.174Z,59.71
2023-03-25T18:28:18.185Z,59.46
2023-03-25T18:30:51.943Z,59.22
2023-03-25T18:33:21.866Z,58.55
2023-03-25T18:35:49.745Z,58.29
2023-03-25T18:38:24.387Z,57.86
2023-03-25T18:40:54.846Z,58.17
2023-03-25T18:43:22.931Z,58.20
2023-03-25T18:45:50.314Z,58.14
2023-03-25T18:48:23.679Z,58.18
2023-03-25T18:50:58.416Z,58.16
2023-03-25T18:53:29.535Z,57.95
2023-03-25T18:56:00.982Z,58.64
2023-03-25T18:58:33.922Z,60.10
2023-03-25T19:01:02.426Z,61.29
2023-03-25T19:03:38.264Z,63.85
2023-03-25T19:06:14.170Z,66.07
2023-03-25T19:08:43.449Z,68.89
2023-03-25T19:11:20.700Z,74.21
2023-03-25T19:13:50.661Z,75.51
2023-03-25T19:16:18.761Z,78.92
2023-03-25T19:18:47.383Z,79.91
2023-03-25T19:21:18.236Z,83.01
2023-03-25T19:23:46.526Z,82.89
2023-03-25T19:26:14.423Z,83.99
2023-03-25T19:28:41.697Z,83.15
2023-03-25T19:31:12.305Z,81.92
2023-03-25T19:33:39.260Z,82.20
2023-03-25T19:36:06.677Z,82.57
2023-03-25T19:38:34.589Z,82.54
2023-03-25T19:41:15.940Z,81.25
2023-03-25T19:43:42.888Z,81.54
2023-03-25T19:46:10.693Z,82.15
2023-03-25T19:48:37.618Z,80.37
2023-03-25T19:51:05.184Z,82.07
2023-03-25T19:53:31.981Z,80.98
2023-03-25T19:56:04.811Z,81.49
2023-03-25T19:58:32.554Z,81.09
2023-03-25T20:00:59.454Z,82.12
2023-03-25T20:03:26.675Z,80.99
2023-03-25T20:05:58.492Z,80.49
2023-03-25T20:08:26.545Z,80.03
2023-03-25T20:10:53.939Z,80.33
2023-03-25T20:13:21.276Z,80.09
2023-03-25T20:15:52.754Z,81.55
2023-03-25T20:18:20.050Z,80.58
2023-03-25T20:20:47.899Z,77.73
2023-03-25T20:23:14.917Z,78.10
2023-03-25T20:25:43.705Z,78.62
2023-03-25T20:28:11.905Z,78.01
2023-03-25T20:30:39.568Z,77.16
2023-03-25T20:33:08.496Z,77.33
2023-03-25T20:35:35.954Z,77.50
2023-03-25T20:38:04.642Z,76.60
2023-03-25T20:40:43.600Z,76.75
2023-03-25T20:43:14.721Z,76.93
2023-03-25T20:45:43.491Z,77.83
2023-03-25T20:48:11.091Z,76.93
2023-03-25T20:50:38.876Z,75.15
2023-03-25T20:53:06.839Z,75.18
2023-03-25T20:55:34.262Z,75.69
2023-03-25T20:58:01.977Z,76.19
2023-03-25T21:00:29.604Z,75.99
2023-03-25T21:02:57.838Z,75.33
2023-03-25T21:05:27.583Z,75.70
2023-03-25T21:07:55.362Z,76.58
2023-03-25T21:10:22.189Z,78.17
2023-03-25T21:12:49.179Z,78.48
2023-03-25T21:15:15.958Z,80.81
2023-03-25T21:17:43.486Z,82.51
2023-03-25T21:20:11.416Z,84.87
2023-03-25T21:22:43.884Z,91.13
2023-03-25T21:25:14.141Z,95.41
2023-03-25T21:27:42.188Z,99.41
2023-03-25T21:30:10.348Z,99.95
2023-03-25T21:32:41.145Z,100.00
2023-03-25T21:35:09.570Z,100.00
2023-03-25T21:37:38.711Z,100.00
2023-03-25T21:40:12.986Z,100.00
2023-03-25T21:42:41.725Z,100.00
2023-03-25T21:45:13.732Z,100.00
2023-03-25T21:47:41.532Z,100.00
2023-03-25T21:50:11.671Z,100.00
2023-03-25T21:52:46.812Z,100.00
2023-03-25T21:55:16.254Z,100.00
2023-03-25T21:57:47.643Z,100.00
2023-03-25T22:00:18.038Z,100.00
2023-03-25T22:02:46.760Z,100.00
2023-03-25T22:05:16.657Z,100.00
2023-03-25T22:07:44.477Z,100.00
2023-03-25T22:10:11.931Z,100.00
2023-03-25T22:12:39.587Z,100.00
2023-03-25T22:15:07.791Z,100.00
2023-03-25T22:17:34.638Z,100.00
2023-03-25T22:20:01.706Z,100.00
2023-03-25T22:22:29.787Z,100.00
2023-03-25T22:24:57.033Z,100.00
2023-03-25T22:27:23.979Z,100.00
2023-03-25T22:29:51.014Z,100.00
2023-03-25T22:32:18.115Z,100.00
2023-03-25T22:34:45.138Z,100.00
2023-03-25T22:37:12.122Z,100.00
2023-03-25T22:39:39.284Z,100.00
2023-03-25T22:42:06.962Z,100.00
2023-03-25T22:44:34.023Z,100.00
2023-03-25T22:47:01.091Z,100.00
2023-03-25T22:49:27.944Z,100.00
2023-03-25T22:51:55.533Z,100.00
2023-03-25T22:54:22.944Z,100.00
2023-03-25T22:56:50.331Z,100.00
2023-03-25T22:59:17.243Z,100.00
2023-03-25T23:01:44.151Z,100.00
2023-03-25T23:04:11.607Z,100.00
2023-03-25T23:06:39.188Z,100.00
2023-03-25T23:09:09.269Z,100.00
2023-03-25T23:11:37.939Z,100.00
2023-03-25T23:14:09.375Z,100.00
2023-03-25T23:16:39.119Z,100.00
2023-03-25T23:19:09.252Z,100.00
2023-03-25T23:21:38.924Z,100.00
2023-03-25T23:24:07.145Z,100.00
2023-03-25T23:26:39.232Z,100.00
2023-03-25T23:29:10.471Z,100.00
2023-03-25T23:31:42.206Z,100.00
2023-03-25T23:34:13.763Z,100.00
2023-03-25T23:36:41.533Z,100.00
2023-03-25T23:39:12.545Z,100.00
2023-03-25T23:41:39.652Z,100.00
2023-03-25T23:44:06.732Z,100.00
2023-03-25T23:46:34.477Z,100.00
2023-03-25T23:49:05.691Z,100.00
2023-03-25T23:51:41.235Z,100.00
2023-03-25T23:54:12.638Z,100.00
2023-03-25T23:56:41.415Z,100.00
2023-03-25T23:59:09.620Z,100.00
